Aviation Digital Data Service (ADDS)

Output produced by METARs form (0007 UTC 19 August 2019)
found at http://www.aviationweather.gov/metar/data/
 
METAR text: YBAS 190000Z AUTO 13015KT 9999 // NCD 11/M01 Q1031
Conditions at: YBAS (ALICE SPRINGS AR, AU) observed 0000 UTC 19 August 2019
Temperature: 11.0°C (52°F)
Dewpoint: -1.0°C (30°F) [RH = 43%]
Pressure (altimeter): 30.44 inches Hg (1031.0 mb)
Winds: from the SE (130 degrees) at 17 MPH (15 knots; 7.7 m/s)
Visibility: 6 or more miles (10+ km)
Ceiling: at least 12,000 feet AGL
Clouds: sky clear below 12,000 feet AGL
Weather: no significant weather observed at this time

METAR text: YBAS 182330Z AUTO 12016KT 9999 // NCD 10/M02 Q1031 RF00.0/000.0
Conditions at: YBAS (ALICE SPRINGS AR, AU) observed 2330 UTC 18 August 2019
Temperature: 10.0°C (50°F)
Dewpoint: -2.0°C (28°F) [RH = 43%]
Pressure (altimeter): 30.44 inches Hg (1031.0 mb)
Winds: from the ESE (120 degrees) at 18 MPH (16 knots; 8.2 m/s)
Visibility: 6 or more miles (10+ km)
Ceiling: at least 12,000 feet AGL
Clouds: sky clear below 12,000 feet AGL
Weather: no significant weather observed at this time

METAR text: YBAS 182300Z AUTO 13012KT 9999 // NCD 09/M02 Q1030 RF00.0/000.0
Conditions at: YBAS (ALICE SPRINGS AR, AU) observed 2300 UTC 18 August 2019
Temperature: 9.0°C (48°F)
Dewpoint: -2.0°C (28°F) [RH = 46%]
Pressure (altimeter): 30.41 inches Hg (1030.0 mb)
Winds: from the SE (130 degrees) at 14 MPH (12 knots; 6.2 m/s)
Visibility: 6 or more miles (10+ km)
Ceiling: at least 12,000 feet AGL
Clouds: sky clear below 12,000 feet AGL
Weather: no significant weather observed at this time

METAR text: YBAS 182230Z AUTO 15008KT 9999 // NCD 08/M02 Q1030 RF00.0/000.0
Conditions at: YBAS (ALICE SPRINGS AR, AU) observed 2230 UTC 18 August 2019
Temperature: 8.0°C (46°F)
Dewpoint: -2.0°C (28°F) [RH = 49%]
Pressure (altimeter): 30.41 inches Hg (1030.0 mb)
Winds: from the SSE (150 degrees) at 9 MPH (8 knots; 4.1 m/s)
Visibility: 6 or more miles (10+ km)
Ceiling: at least 12,000 feet AGL
Clouds: sky clear below 12,000 feet AGL
Weather: no significant weather observed at this time

METAR text: YBAS 182200Z AUTO 14007KT 9999 // NCD 07/M02 Q1029 RF00.0/000.0
Conditions at: YBAS (ALICE SPRINGS AR, AU) observed 2200 UTC 18 August 2019
Temperature: 7.0°C (45°F)
Dewpoint: -2.0°C (28°F) [RH = 53%]
Pressure (altimeter): 30.38 inches Hg (1029.0 mb)
Winds: from the SE (140 degrees) at 8 MPH (7 knots; 3.6 m/s)
Visibility: 6 or more miles (10+ km)
Ceiling: at least 12,000 feet AGL
Clouds: sky clear below 12,000 feet AGL
Weather: no significant weather observed at this time

METAR text: YBAS 182130Z AUTO 14007KT 9999 // NCD 06/M03 Q1029 RF00.0/000.0
Conditions at: YBAS (ALICE SPRINGS AR, AU) observed 2130 UTC 18 August 2019
Temperature: 6.0°C (43°F)
Dewpoint: -3.0°C (27°F) [RH = 52%]
Pressure (altimeter): 30.38 inches Hg (1029.0 mb)
Winds: from the SE (140 degrees) at 8 MPH (7 knots; 3.6 m/s)
Visibility: 6 or more miles (10+ km)
Ceiling: at least 12,000 feet AGL
Clouds: sky clear below 12,000 feet AGL
Weather: no significant weather observed at this time

METAR text: YBAS 182100Z AUTO 15007KT 9999 // NCD 05/M04 Q1029 RF00.0/000.0
Conditions at: YBAS (ALICE SPRINGS AR, AU) observed 2100 UTC 18 August 2019
Temperature: 5.0°C (41°F)
Dewpoint: -4.0°C (25°F) [RH = 52%]
Pressure (altimeter): 30.38 inches Hg (1029.0 mb)
Winds: from the SSE (150 degrees) at 8 MPH (7 knots; 3.6 m/s)
Visibility: 6 or more miles (10+ km)
Ceiling: at least 12,000 feet AGL
Clouds: sky clear below 12,000 feet AGL
Weather: no significant weather observed at this time

METAR text: YBAS 182030Z AUTO 16007KT 9999 // NCD 06/M04 Q1028 RF00.0/000.0
Conditions at: YBAS (ALICE SPRINGS AR, AU) observed 2030 UTC 18 August 2019
Temperature: 6.0°C (43°F)
Dewpoint: -4.0°C (25°F) [RH = 49%]
Pressure (altimeter): 30.35 inches Hg (1028.0 mb)
Winds: from the SSE (160 degrees) at 8 MPH (7 knots; 3.6 m/s)
Visibility: 6 or more miles (10+ km)
Ceiling: at least 12,000 feet AGL
Clouds: sky clear below 12,000 feet AGL
Weather: no significant weather observed at this time

METAR text: YBAS 182000Z AUTO 17006KT 9999 // NCD 05/M05 Q1028 RF00.0/000.0
Conditions at: YBAS (ALICE SPRINGS AR, AU) observed 2000 UTC 18 August 2019
Temperature: 5.0°C (41°F)
Dewpoint: -5.0°C (23°F) [RH = 48%]
Pressure (altimeter): 30.35 inches Hg (1028.0 mb)
Winds: from the S (170 degrees) at 7 MPH (6 knots; 3.1 m/s)
Visibility: 6 or more miles (10+ km)
Ceiling: at least 12,000 feet AGL
Clouds: sky clear below 12,000 feet AGL
Weather: no significant weather observed at this time

METAR text: YBAS 181930Z AUTO 16006KT 9999 // NCD 05/M05 Q1027 RF00.0/000.0
Conditions at: YBAS (ALICE SPRINGS AR, AU) observed 1930 UTC 18 August 2019
Temperature: 5.0°C (41°F)
Dewpoint: -5.0°C (23°F) [RH = 48%]
Pressure (altimeter): 30.32 inches Hg (1027.0 mb)
Winds: from the SSE (160 degrees) at 7 MPH (6 knots; 3.1 m/s)
Visibility: 6 or more miles (10+ km)
Ceiling: at least 12,000 feet AGL
Clouds: sky clear below 12,000 feet AGL
Weather: no significant weather observed at this time

METAR text: YBAS 181900Z AUTO 16006KT 9999 // NCD 07/M05 Q1027 RF00.0/000.0
Conditions at: YBAS (ALICE SPRINGS AR, AU) observed 1900 UTC 18 August 2019
Temperature: 7.0°C (45°F)
Dewpoint: -5.0°C (23°F) [RH = 42%]
Pressure (altimeter): 30.32 inches Hg (1027.0 mb)
Winds: from the SSE (160 degrees) at 7 MPH (6 knots; 3.1 m/s)
Visibility: 6 or more miles (10+ km)
Ceiling: at least 12,000 feet AGL
Clouds: sky clear below 12,000 feet AGL
Weather: no significant weather observed at this time

METAR text: YBAS 181830Z AUTO 15007KT 9999 // NCD 08/M05 Q1027 RF00.0/000.0
Conditions at: YBAS (ALICE SPRINGS AR, AU) observed 1830 UTC 18 August 2019
Temperature: 8.0°C (46°F)
Dewpoint: -5.0°C (23°F) [RH = 39%]
Pressure (altimeter): 30.32 inches Hg (1027.0 mb)
Winds: from the SSE (150 degrees) at 8 MPH (7 knots; 3.6 m/s)
Visibility: 6 or more miles (10+ km)
Ceiling: at least 12,000 feet AGL
Clouds: sky clear below 12,000 feet AGL
Weather: no significant weather observed at this time

METAR text: YBAS 181800Z AUTO 16008KT 9999 // NCD 09/M05 Q1027 RF00.0/000.0
Conditions at: YBAS (ALICE SPRINGS AR, AU) observed 1800 UTC 18 August 2019
Temperature: 9.0°C (48°F)
Dewpoint: -5.0°C (23°F) [RH = 37%]
Pressure (altimeter): 30.32 inches Hg (1027.0 mb)
Winds: from the SSE (160 degrees) at 9 MPH (8 knots; 4.1 m/s)
Visibility: 6 or more miles (10+ km)
Ceiling: at least 12,000 feet AGL
Clouds: sky clear below 12,000 feet AGL
Weather: no significant weather observed at this time

METAR text: YBAS 181730Z AUTO 16008KT 9999 // NCD 08/M07 Q1027 RF00.0/000.0
Conditions at: YBAS (ALICE SPRINGS AR, AU) observed 1730 UTC 18 August 2019
Temperature: 8.0°C (46°F)
Dewpoint: -7.0°C (19°F) [RH = 34%]
Pressure (altimeter): 30.32 inches Hg (1027.0 mb)
Winds: from the SSE (160 degrees) at 9 MPH (8 knots; 4.1 m/s)
Visibility: 6 or more miles (10+ km)
Ceiling: at least 12,000 feet AGL
Clouds: sky clear below 12,000 feet AGL
Weather: no significant weather observed at this time

METAR text: YBAS 181700Z AUTO 15010KT 9999 // NCD 10/M07 Q1027 RF00.0/000.0
Conditions at: YBAS (ALICE SPRINGS AR, AU) observed 1700 UTC 18 August 2019
Temperature: 10.0°C (50°F)
Dewpoint: -7.0°C (19°F) [RH = 29%]
Pressure (altimeter): 30.32 inches Hg (1027.0 mb)
Winds: from the SSE (150 degrees) at 12 MPH (10 knots; 5.1 m/s)
Visibility: 6 or more miles (10+ km)
Ceiling: at least 12,000 feet AGL
Clouds: sky clear below 12,000 feet AGL
Weather: no significant weather observed at this time

METAR text: YBAS 181630Z AUTO 16009KT 9999 // NCD 09/M08 Q1026 RF00.0/000.0
Conditions at: YBAS (ALICE SPRINGS AR, AU) observed 1630 UTC 18 August 2019
Temperature: 9.0°C (48°F)
Dewpoint: -8.0°C (18°F) [RH = 29%]
Pressure (altimeter): 30.30 inches Hg (1026.0 mb)
Winds: from the SSE (160 degrees) at 10 MPH (9 knots; 4.6 m/s)
Visibility: 6 or more miles (10+ km)
Ceiling: at least 12,000 feet AGL
Clouds: sky clear below 12,000 feet AGL
Weather: no significant weather observed at this time

METAR text: YBAS 181600Z AUTO 17006KT 9999 // NCD 07/M09 Q1026 RF00.0/000.0
Conditions at: YBAS (ALICE SPRINGS AR, AU) observed 1600 UTC 18 August 2019
Temperature: 7.0°C (45°F)
Dewpoint: -9.0°C (16°F) [RH = 31%]
Pressure (altimeter): 30.30 inches Hg (1026.0 mb)
Winds: from the S (170 degrees) at 7 MPH (6 knots; 3.1 m/s)
Visibility: 6 or more miles (10+ km)
Ceiling: at least 12,000 feet AGL
Clouds: sky clear below 12,000 feet AGL
Weather: no significant weather observed at this time

METAR text: YBAS 181530Z AUTO 17005KT 9999 // NCD 07/M09 Q1026 RF00.0/000.0
Conditions at: YBAS (ALICE SPRINGS AR, AU) observed 1530 UTC 18 August 2019
Temperature: 7.0°C (45°F)
Dewpoint: -9.0°C (16°F) [RH = 31%]
Pressure (altimeter): 30.30 inches Hg (1026.0 mb)
Winds: from the S (170 degrees) at 6 MPH (5 knots; 2.6 m/s)
Visibility: 6 or more miles (10+ km)
Ceiling: at least 12,000 feet AGL
Clouds: sky clear below 12,000 feet AGL
Weather: no significant weather observed at this time

METAR text: YBAS 181500Z AUTO 17004KT 9999 // NCD 07/M09 Q1026 RF00.0/000.0
Conditions at: YBAS (ALICE SPRINGS AR, AU) observed 1500 UTC 18 August 2019
Temperature: 7.0°C (45°F)
Dewpoint: -9.0°C (16°F) [RH = 31%]
Pressure (altimeter): 30.30 inches Hg (1026.0 mb)
Winds: from the S (170 degrees) at 5 MPH (4 knots; 2.1 m/s)
Visibility: 6 or more miles (10+ km)
Ceiling: at least 12,000 feet AGL
Clouds: sky clear below 12,000 feet AGL
Weather: no significant weather observed at this time

METAR text: YBAS 181430Z AUTO 17007KT 9999 // NCD 08/M08 Q1026 RF00.0/000.0
Conditions at: YBAS (ALICE SPRINGS AR, AU) observed 1430 UTC 18 August 2019
Temperature: 8.0°C (46°F)
Dewpoint: -8.0°C (18°F) [RH = 31%]
Pressure (altimeter): 30.30 inches Hg (1026.0 mb)
Winds: from the S (170 degrees) at 8 MPH (7 knots; 3.6 m/s)
Visibility: 6 or more miles (10+ km)
Ceiling: at least 12,000 feet AGL
Clouds: sky clear below 12,000 feet AGL
Weather: no significant weather observed at this time

METAR text: YBAS 181400Z AUTO 17006KT 9999 // NCD 08/M07 Q1026 RF00.0/000.0
Conditions at: YBAS (ALICE SPRINGS AR, AU) observed 1400 UTC 18 August 2019
Temperature: 8.0°C (46°F)
Dewpoint: -7.0°C (19°F) [RH = 34%]
Pressure (altimeter): 30.30 inches Hg (1026.0 mb)
Winds: from the S (170 degrees) at 7 MPH (6 knots; 3.1 m/s)
Visibility: 6 or more miles (10+ km)
Ceiling: at least 12,000 feet AGL
Clouds: sky clear below 12,000 feet AGL
Weather: no significant weather observed at this time

METAR text: YBAS 181330Z AUTO 17005KT 9999 // NCD 08/M08 Q1026 RF00.0/000.0
Conditions at: YBAS (ALICE SPRINGS AR, AU) observed 1330 UTC 18 August 2019
Temperature: 8.0°C (46°F)
Dewpoint: -8.0°C (18°F) [RH = 31%]
Pressure (altimeter): 30.30 inches Hg (1026.0 mb)
Winds: from the S (170 degrees) at 6 MPH (5 knots; 2.6 m/s)
Visibility: 6 or more miles (10+ km)
Ceiling: at least 12,000 feet AGL
Clouds: sky clear below 12,000 feet AGL
Weather: no significant weather observed at this time

METAR text: YBAS 181300Z AUTO 18006KT 9999 // NCD 10/M06 Q1026 RF00.0/000.0
Conditions at: YBAS (ALICE SPRINGS AR, AU) observed 1300 UTC 18 August 2019
Temperature: 10.0°C (50°F)
Dewpoint: -6.0°C (21°F) [RH = 32%]
Pressure (altimeter): 30.30 inches Hg (1026.0 mb)
Winds: from the S (180 degrees) at 7 MPH (6 knots; 3.1 m/s)
Visibility: 6 or more miles (10+ km)
Ceiling: at least 12,000 feet AGL
Clouds: sky clear below 12,000 feet AGL
Weather: no significant weather observed at this time

METAR text: YBAS 181230Z AUTO 18005KT 9999 // NCD 11/M05 Q1025 RF00.0/000.0
Conditions at: YBAS (ALICE SPRINGS AR, AU) observed 1230 UTC 18 August 2019
Temperature: 11.0°C (52°F)
Dewpoint: -5.0°C (23°F) [RH = 32%]
Pressure (altimeter): 30.27 inches Hg (1025.0 mb)
Winds: from the S (180 degrees) at 6 MPH (5 knots; 2.6 m/s)
Visibility: 6 or more miles (10+ km)
Ceiling: at least 12,000 feet AGL
Clouds: sky clear below 12,000 feet AGL
Weather: no significant weather observed at this time

METAR text: YBAS 181200Z AUTO 17005KT 9999 // NCD 11/M05 Q1025 RF00.0/000.0
Conditions at: YBAS (ALICE SPRINGS AR, AU) observed 1200 UTC 18 August 2019
Temperature: 11.0°C (52°F)
Dewpoint: -5.0°C (23°F) [RH = 32%]
Pressure (altimeter): 30.27 inches Hg (1025.0 mb)
Winds: from the S (170 degrees) at 6 MPH (5 knots; 2.6 m/s)
Visibility: 6 or more miles (10+ km)
Ceiling: at least 12,000 feet AGL
Clouds: sky clear below 12,000 feet AGL
Weather: no significant weather observed at this time

METAR text: YBAS 181130Z AUTO 18006KT 9999 // NCD 12/M05 Q1025 RF00.0/000.0
Conditions at: YBAS (ALICE SPRINGS AR, AU) observed 1130 UTC 18 August 2019
Temperature: 12.0°C (54°F)
Dewpoint: -5.0°C (23°F) [RH = 30%]
Pressure (altimeter): 30.27 inches Hg (1025.0 mb)
Winds: from the S (180 degrees) at 7 MPH (6 knots; 3.1 m/s)
Visibility: 6 or more miles (10+ km)
Ceiling: at least 12,000 feet AGL
Clouds: sky clear below 12,000 feet AGL
Weather: no significant weather observed at this time

METAR text: YBAS 181100Z AUTO 18005KT 9999 // NCD 13/M04 Q1024 RF00.0/000.0
Conditions at: YBAS (ALICE SPRINGS AR, AU) observed 1100 UTC 18 August 2019
Temperature: 13.0°C (55°F)
Dewpoint: -4.0°C (25°F) [RH = 30%]
Pressure (altimeter): 30.24 inches Hg (1024.0 mb)
Winds: from the S (180 degrees) at 6 MPH (5 knots; 2.6 m/s)
Visibility: 6 or more miles (10+ km)
Ceiling: at least 12,000 feet AGL
Clouds: sky clear below 12,000 feet AGL
Weather: no significant weather observed at this time

METAR text: YBAS 181030Z AUTO 17005KT 9999 // NCD 13/M04 Q1024 RF00.0/000.0
Conditions at: YBAS (ALICE SPRINGS AR, AU) observed 1030 UTC 18 August 2019
Temperature: 13.0°C (55°F)
Dewpoint: -4.0°C (25°F) [RH = 30%]
Pressure (altimeter): 30.24 inches Hg (1024.0 mb)
Winds: from the S (170 degrees) at 6 MPH (5 knots; 2.6 m/s)
Visibility: 6 or more miles (10+ km)
Ceiling: at least 12,000 feet AGL
Clouds: sky clear below 12,000 feet AGL
Weather: no significant weather observed at this time

METAR text: YBAS 181000Z AUTO 16006KT 9999 // NCD 15/M04 Q1024 RF00.0/000.0
Conditions at: YBAS (ALICE SPRINGS AR, AU) observed 1000 UTC 18 August 2019
Temperature: 15.0°C (59°F)
Dewpoint: -4.0°C (25°F) [RH = 27%]
Pressure (altimeter): 30.24 inches Hg (1024.0 mb)
Winds: from the SSE (160 degrees) at 7 MPH (6 knots; 3.1 m/s)
Visibility: 6 or more miles (10+ km)
Ceiling: at least 12,000 feet AGL
Clouds: sky clear below 12,000 feet AGL
Weather: no significant weather observed at this time

METAR text: YBAS 180930Z AUTO 16007KT 9999 // NCD 16/M03 Q1023 RF00.0/000.0
Conditions at: YBAS (ALICE SPRINGS AR, AU) observed 0930 UTC 18 August 2019
Temperature: 16.0°C (61°F)
Dewpoint: -3.0°C (27°F) [RH = 27%]
Pressure (altimeter): 30.21 inches Hg (1023.0 mb)
Winds: from the SSE (160 degrees) at 8 MPH (7 knots; 3.6 m/s)
Visibility: 6 or more miles (10+ km)
Ceiling: at least 12,000 feet AGL
Clouds: sky clear below 12,000 feet AGL
Weather: no significant weather observed at this time

METAR text: YBAS 180900Z AUTO 18008KT 9999 // NCD 17/M04 Q1023 RF00.0/000.0
Conditions at: YBAS (ALICE SPRINGS AR, AU) observed 0900 UTC 18 August 2019
Temperature: 17.0°C (63°F)
Dewpoint: -4.0°C (25°F) [RH = 23%]
Pressure (altimeter): 30.21 inches Hg (1023.0 mb)
Winds: from the S (180 degrees) at 9 MPH (8 knots; 4.1 m/s)
Visibility: 6 or more miles (10+ km)
Ceiling: at least 12,000 feet AGL
Clouds: sky clear below 12,000 feet AGL
Weather: no significant weather observed at this time

METAR text: YBAS 180830Z AUTO 16009KT 9999 // NCD 19/M04 Q1022 RF00.0/000.0
Conditions at: YBAS (ALICE SPRINGS AR, AU) observed 0830 UTC 18 August 2019
Temperature: 19.0°C (66°F)
Dewpoint: -4.0°C (25°F) [RH = 21%]
Pressure (altimeter): 30.18 inches Hg (1022.0 mb)
Winds: from the SSE (160 degrees) at 10 MPH (9 knots; 4.6 m/s)
Visibility: 6 or more miles (10+ km)
Ceiling: at least 12,000 feet AGL
Clouds: sky clear below 12,000 feet AGL
Weather: no significant weather observed at this time

METAR text: YBAS 180800Z AUTO 18012KT 9999 // NCD 19/M04 Q1022 RF00.0/000.0
Conditions at: YBAS (ALICE SPRINGS AR, AU) observed 0800 UTC 18 August 2019
Temperature: 19.0°C (66°F)
Dewpoint: -4.0°C (25°F) [RH = 21%]
Pressure (altimeter): 30.18 inches Hg (1022.0 mb)
Winds: from the S (180 degrees) at 14 MPH (12 knots; 6.2 m/s)
Visibility: 6 or more miles (10+ km)
Ceiling: at least 12,000 feet AGL
Clouds: sky clear below 12,000 feet AGL
Weather: no significant weather observed at this time

METAR text: YBAS 180730Z AUTO 19011KT 9999 // NCD 20/M03 Q1022 RF00.0/000.0
Conditions at: YBAS (ALICE SPRINGS AR, AU) observed 0730 UTC 18 August 2019
Temperature: 20.0°C (68°F)
Dewpoint: -3.0°C (27°F) [RH = 21%]
Pressure (altimeter): 30.18 inches Hg (1022.0 mb)
Winds: from the S (190 degrees) at 13 MPH (11 knots; 5.7 m/s)
Visibility: 6 or more miles (10+ km)
Ceiling: at least 12,000 feet AGL
Clouds: sky clear below 12,000 feet AGL
Weather: no significant weather observed at this time

METAR text: YBAS 180700Z AUTO 16011KT 9999 // NCD 20/M03 Q1022 RF00.0/000.0
Conditions at: YBAS (ALICE SPRINGS AR, AU) observed 0700 UTC 18 August 2019
Temperature: 20.0°C (68°F)
Dewpoint: -3.0°C (27°F) [RH = 21%]
Pressure (altimeter): 30.18 inches Hg (1022.0 mb)
Winds: from the SSE (160 degrees) at 13 MPH (11 knots; 5.7 m/s)
Visibility: 6 or more miles (10+ km)
Ceiling: at least 12,000 feet AGL
Clouds: sky clear below 12,000 feet AGL
Weather: no significant weather observed at this time

METAR text: YBAS 180630Z AUTO 19011KT 9999 // NCD 20/M03 Q1021 RF00.0/000.0
Conditions at: YBAS (ALICE SPRINGS AR, AU) observed 0630 UTC 18 August 2019
Temperature: 20.0°C (68°F)
Dewpoint: -3.0°C (27°F) [RH = 21%]
Pressure (altimeter): 30.15 inches Hg (1021.0 mb)
Winds: from the S (190 degrees) at 13 MPH (11 knots; 5.7 m/s)
Visibility: 6 or more miles (10+ km)
Ceiling: at least 12,000 feet AGL
Clouds: sky clear below 12,000 feet AGL
Weather: no significant weather observed at this time

METAR text: YBAS 180600Z AUTO 15012KT 9999 // NCD 20/M02 Q1021 RF00.0/000.0
Conditions at: YBAS (ALICE SPRINGS AR, AU) observed 0600 UTC 18 August 2019
Temperature: 20.0°C (68°F)
Dewpoint: -2.0°C (28°F) [RH = 23%]
Pressure (altimeter): 30.15 inches Hg (1021.0 mb)
Winds: from the SSE (150 degrees) at 14 MPH (12 knots; 6.2 m/s)
Visibility: 6 or more miles (10+ km)
Ceiling: at least 12,000 feet AGL
Clouds: sky clear below 12,000 feet AGL
Weather: no significant weather observed at this time

METAR text: YBAS 180530Z AUTO 17012KT 9999 // NCD 20/M02 Q1022 RF00.0/000.0
Conditions at: YBAS (ALICE SPRINGS AR, AU) observed 0530 UTC 18 August 2019
Temperature: 20.0°C (68°F)
Dewpoint: -2.0°C (28°F) [RH = 23%]
Pressure (altimeter): 30.18 inches Hg (1022.0 mb)
Winds: from the S (170 degrees) at 14 MPH (12 knots; 6.2 m/s)
Visibility: 6 or more miles (10+ km)
Ceiling: at least 12,000 feet AGL
Clouds: sky clear below 12,000 feet AGL
Weather: no significant weather observed at this time

METAR text: YBAS 180500Z AUTO 17012KT 130V210 9999 // NCD 20/M02 Q1022 RF00.0/000.0
Conditions at: YBAS (ALICE SPRINGS AR, AU) observed 0500 UTC 18 August 2019
Temperature: 20.0°C (68°F)
Dewpoint: -2.0°C (28°F) [RH = 23%]
Pressure (altimeter): 30.18 inches Hg (1022.0 mb)
Winds: from the S (170 degrees) at 14 MPH (12 knots; 6.2 m/s)
Visibility: 6 or more miles (10+ km)
Ceiling: at least 12,000 feet AGL
Clouds: sky clear below 12,000 feet AGL
Weather: no significant weather observed at this time

METAR text: YBAS 180430Z AUTO 17011KT 140V200 9999 // NCD 19/M01 Q1022 RF00.0/000.0
Conditions at: YBAS (ALICE SPRINGS AR, AU) observed 0430 UTC 18 August 2019
Temperature: 19.0°C (66°F)
Dewpoint: -1.0°C (30°F) [RH = 26%]
Pressure (altimeter): 30.18 inches Hg (1022.0 mb)
Winds: from the S (170 degrees) at 13 MPH (11 knots; 5.7 m/s)
Visibility: 6 or more miles (10+ km)
Ceiling: at least 12,000 feet AGL
Clouds: sky clear below 12,000 feet AGL
Weather: no significant weather observed at this time

METAR text: YBAS 180400Z AUTO 16011KT 9999 // NCD 19/M02 Q1022 RF00.0/000.0
Conditions at: YBAS (ALICE SPRINGS AR, AU) observed 0400 UTC 18 August 2019
Temperature: 19.0°C (66°F)
Dewpoint: -2.0°C (28°F) [RH = 24%]
Pressure (altimeter): 30.18 inches Hg (1022.0 mb)
Winds: from the SSE (160 degrees) at 13 MPH (11 knots; 5.7 m/s)
Visibility: 6 or more miles (10+ km)
Ceiling: at least 12,000 feet AGL
Clouds: sky clear below 12,000 feet AGL
Weather: no significant weather observed at this time

METAR text: YBAS 180330Z AUTO 16012KT 9999 // NCD 19/M02 Q1022 RF00.0/000.0
Conditions at: YBAS (ALICE SPRINGS AR, AU) observed 0330 UTC 18 August 2019
Temperature: 19.0°C (66°F)
Dewpoint: -2.0°C (28°F) [RH = 24%]
Pressure (altimeter): 30.18 inches Hg (1022.0 mb)
Winds: from the SSE (160 degrees) at 14 MPH (12 knots; 6.2 m/s)
Visibility: 6 or more miles (10+ km)
Ceiling: at least 12,000 feet AGL
Clouds: sky clear below 12,000 feet AGL
Weather: no significant weather observed at this time

METAR text: YBAS 180300Z AUTO 15014KT 9999 // NCD 18/M02 Q1023 RF00.0/000.0
Conditions at: YBAS (ALICE SPRINGS AR, AU) observed 0300 UTC 18 August 2019
Temperature: 18.0°C (64°F)
Dewpoint: -2.0°C (28°F) [RH = 26%]
Pressure (altimeter): 30.21 inches Hg (1023.0 mb)
Winds: from the SSE (150 degrees) at 16 MPH (14 knots; 7.2 m/s)
Visibility: 6 or more miles (10+ km)
Ceiling: at least 12,000 feet AGL
Clouds: sky clear below 12,000 feet AGL
Weather: no significant weather observed at this time

METAR text: YBAS 180230Z AUTO 17013KT 9999 // NCD 18/M02 Q1023 RF00.0/000.0
Conditions at: YBAS (ALICE SPRINGS AR, AU) observed 0230 UTC 18 August 2019
Temperature: 18.0°C (64°F)
Dewpoint: -2.0°C (28°F) [RH = 26%]
Pressure (altimeter): 30.21 inches Hg (1023.0 mb)
Winds: from the S (170 degrees) at 15 MPH (13 knots; 6.7 m/s)
Visibility: 6 or more miles (10+ km)
Ceiling: at least 12,000 feet AGL
Clouds: sky clear below 12,000 feet AGL
Weather: no significant weather observed at this time

METAR text: YBAS 180200Z AUTO 16014KT 9999 // NCD 18/M02 Q1024 RF00.0/000.0
Conditions at: YBAS (ALICE SPRINGS AR, AU) observed 0200 UTC 18 August 2019
Temperature: 18.0°C (64°F)
Dewpoint: -2.0°C (28°F) [RH = 26%]
Pressure (altimeter): 30.24 inches Hg (1024.0 mb)
Winds: from the SSE (160 degrees) at 16 MPH (14 knots; 7.2 m/s)
Visibility: 6 or more miles (10+ km)
Ceiling: at least 12,000 feet AGL
Clouds: sky clear below 12,000 feet AGL
Weather: no significant weather observed at this time

METAR text: YBAS 180130Z AUTO 16015KT 9999 // NCD 18/M01 Q1024 RF00.0/000.0
Conditions at: YBAS (ALICE SPRINGS AR, AU) observed 0130 UTC 18 August 2019
Temperature: 18.0°C (64°F)
Dewpoint: -1.0°C (30°F) [RH = 28%]
Pressure (altimeter): 30.24 inches Hg (1024.0 mb)
Winds: from the SSE (160 degrees) at 17 MPH (15 knots; 7.7 m/s)
Visibility: 6 or more miles (10+ km)
Ceiling: at least 12,000 feet AGL
Clouds: sky clear below 12,000 feet AGL
Weather: no significant weather observed at this time

METAR text: YBAS 180100Z AUTO 15015KT 9999 // NCD 18/M01 Q1024 RF00.0/000.0
Conditions at: YBAS (ALICE SPRINGS AR, AU) observed 0100 UTC 18 August 2019
Temperature: 18.0°C (64°F)
Dewpoint: -1.0°C (30°F) [RH = 28%]
Pressure (altimeter): 30.24 inches Hg (1024.0 mb)
Winds: from the SSE (150 degrees) at 17 MPH (15 knots; 7.7 m/s)
Visibility: 6 or more miles (10+ km)
Ceiling: at least 12,000 feet AGL
Clouds: sky clear below 12,000 feet AGL
Weather: no significant weather observed at this time

METAR text: YBAS 180030Z AUTO 18013KT 9999 // NCD 17/M00 Q1024 RF00.0/000.0
Conditions at: YBAS (ALICE SPRINGS AR, AU) observed 0030 UTC 18 August 2019
Temperature: 17.0°C (63°F)
Dewpoint: 0.0°C (32°F) [RH = 32%]
Pressure (altimeter): 30.24 inches Hg (1024.0 mb)
Winds: from the S (180 degrees) at 15 MPH (13 knots; 6.7 m/s)
Visibility: 6 or more miles (10+ km)
Ceiling: at least 12,000 feet AGL
Clouds: sky clear below 12,000 feet AGL
Weather: no significant weather observed at this time

METAR text: YBAS 180000Z AUTO 18014KT 9999 // NCD 17/M00 Q1024 RF00.0/000.0
Conditions at: YBAS (ALICE SPRINGS AR, AU) observed 0000 UTC 18 August 2019
Temperature: 17.0°C (63°F)
Dewpoint: 0.0°C (32°F) [RH = 32%]
Pressure (altimeter): 30.24 inches Hg (1024.0 mb)
Winds: from the S (180 degrees) at 16 MPH (14 knots; 7.2 m/s)
Visibility: 6 or more miles (10+ km)
Ceiling: at least 12,000 feet AGL
Clouds: sky clear below 12,000 feet AGL
Weather: no significant weather observed at this time

METAR text: YBAS 172330Z AUTO 18015KT 9999 // NCD 16/M00 Q1024 RF00.0/000.0
Conditions at: YBAS (ALICE SPRINGS AR, AU) observed 2330 UTC 17 August 2019
Temperature: 16.0°C (61°F)
Dewpoint: 0.0°C (32°F) [RH = 34%]
Pressure (altimeter): 30.24 inches Hg (1024.0 mb)
Winds: from the S (180 degrees) at 17 MPH (15 knots; 7.7 m/s)
Visibility: 6 or more miles (10+ km)
Ceiling: at least 12,000 feet AGL
Clouds: sky clear below 12,000 feet AGL
Weather: no significant weather observed at this time

METAR text: YBAS 172300Z AUTO 18011KT 9999 // NCD 16/M01 Q1023 RF00.0/000.0
Conditions at: YBAS (ALICE SPRINGS AR, AU) observed 2300 UTC 17 August 2019
Temperature: 16.0°C (61°F)
Dewpoint: -1.0°C (30°F) [RH = 31%]
Pressure (altimeter): 30.21 inches Hg (1023.0 mb)
Winds: from the S (180 degrees) at 13 MPH (11 knots; 5.7 m/s)
Visibility: 6 or more miles (10+ km)
Ceiling: at least 12,000 feet AGL
Clouds: sky clear below 12,000 feet AGL
Weather: no significant weather observed at this time

METAR text: YBAS 172230Z AUTO 20005KT 9999 // NCD 13/M01 Q1023 RF00.0/000.0
Conditions at: YBAS (ALICE SPRINGS AR, AU) observed 2230 UTC 17 August 2019
Temperature: 13.0°C (55°F)
Dewpoint: -1.0°C (30°F) [RH = 38%]
Pressure (altimeter): 30.21 inches Hg (1023.0 mb)
Winds: from the SSW (200 degrees) at 6 MPH (5 knots; 2.6 m/s)
Visibility: 6 or more miles (10+ km)
Ceiling: at least 12,000 feet AGL
Clouds: sky clear below 12,000 feet AGL
Weather: no significant weather observed at this time

METAR text: YBAS 172200Z AUTO 21005KT 9999 // NCD 10/M02 Q1022 RF00.0/000.0
Conditions at: YBAS (ALICE SPRINGS AR, AU) observed 2200 UTC 17 August 2019
Temperature: 10.0°C (50°F)
Dewpoint: -2.0°C (28°F) [RH = 43%]
Pressure (altimeter): 30.18 inches Hg (1022.0 mb)
Winds: from the SSW (210 degrees) at 6 MPH (5 knots; 2.6 m/s)
Visibility: 6 or more miles (10+ km)
Ceiling: at least 12,000 feet AGL
Clouds: sky clear below 12,000 feet AGL
Weather: no significant weather observed at this time

METAR text: YBAS 172130Z AUTO 20004KT 9999 // NCD 10/M01 Q1021 RF00.0/000.0
Conditions at: YBAS (ALICE SPRINGS AR, AU) observed 2130 UTC 17 August 2019
Temperature: 10.0°C (50°F)
Dewpoint: -1.0°C (30°F) [RH = 46%]
Pressure (altimeter): 30.15 inches Hg (1021.0 mb)
Winds: from the SSW (200 degrees) at 5 MPH (4 knots; 2.1 m/s)
Visibility: 6 or more miles (10+ km)
Ceiling: at least 12,000 feet AGL
Clouds: sky clear below 12,000 feet AGL
Weather: no significant weather observed at this time

METAR text: YBAS 172100Z AUTO 21005KT 9999 // NCD 11/M01 Q1021 RF00.0/000.0
Conditions at: YBAS (ALICE SPRINGS AR, AU) observed 2100 UTC 17 August 2019
Temperature: 11.0°C (52°F)
Dewpoint: -1.0°C (30°F) [RH = 43%]
Pressure (altimeter): 30.15 inches Hg (1021.0 mb)
Winds: from the SSW (210 degrees) at 6 MPH (5 knots; 2.6 m/s)
Visibility: 6 or more miles (10+ km)
Ceiling: at least 12,000 feet AGL
Clouds: sky clear below 12,000 feet AGL
Weather: no significant weather observed at this time

METAR text: YBAS 172030Z AUTO 22006KT 9999 // NCD 10/M02 Q1020 RF00.0/000.0
Conditions at: YBAS (ALICE SPRINGS AR, AU) observed 2030 UTC 17 August 2019
Temperature: 10.0°C (50°F)
Dewpoint: -2.0°C (28°F) [RH = 43%]
Pressure (altimeter): 30.12 inches Hg (1020.0 mb)
Winds: from the SW (220 degrees) at 7 MPH (6 knots; 3.1 m/s)
Visibility: 6 or more miles (10+ km)
Ceiling: at least 12,000 feet AGL
Clouds: sky clear below 12,000 feet AGL
Weather: no significant weather observed at this time

METAR text: YBAS 172000Z AUTO 23004KT 9999 // NCD 12/M01 Q1020 RF00.0/000.0
Conditions at: YBAS (ALICE SPRINGS AR, AU) observed 2000 UTC 17 August 2019
Temperature: 12.0°C (54°F)
Dewpoint: -1.0°C (30°F) [RH = 40%]
Pressure (altimeter): 30.12 inches Hg (1020.0 mb)
Winds: from the SW (230 degrees) at 5 MPH (4 knots; 2.1 m/s)
Visibility: 6 or more miles (10+ km)
Ceiling: at least 12,000 feet AGL
Clouds: sky clear below 12,000 feet AGL
Weather: no significant weather observed at this time

METAR text: YBAS 171930Z AUTO 25007KT 9999 // NCD 13/M01 Q1020 RF00.0/000.0
Conditions at: YBAS (ALICE SPRINGS AR, AU) observed 1930 UTC 17 August 2019
Temperature: 13.0°C (55°F)
Dewpoint: -1.0°C (30°F) [RH = 38%]
Pressure (altimeter): 30.12 inches Hg (1020.0 mb)
Winds: from the WSW (250 degrees) at 8 MPH (7 knots; 3.6 m/s)
Visibility: 6 or more miles (10+ km)
Ceiling: at least 12,000 feet AGL
Clouds: sky clear below 12,000 feet AGL
Weather: no significant weather observed at this time

METAR text: YBAS 171900Z AUTO 25007KT 9999 // NCD 14/M01 Q1019 RF00.0/000.0
Conditions at: YBAS (ALICE SPRINGS AR, AU) observed 1900 UTC 17 August 2019
Temperature: 14.0°C (57°F)
Dewpoint: -1.0°C (30°F) [RH = 36%]
Pressure (altimeter): 30.09 inches Hg (1019.0 mb)
Winds: from the WSW (250 degrees) at 8 MPH (7 knots; 3.6 m/s)
Visibility: 6 or more miles (10+ km)
Ceiling: at least 12,000 feet AGL
Clouds: sky clear below 12,000 feet AGL
Weather: no significant weather observed at this time

METAR text: YBAS 171830Z AUTO 26006KT 9999 // NCD 14/M01 Q1019 RF00.0/000.0
Conditions at: YBAS (ALICE SPRINGS AR, AU) observed 1830 UTC 17 August 2019
Temperature: 14.0°C (57°F)
Dewpoint: -1.0°C (30°F) [RH = 36%]
Pressure (altimeter): 30.09 inches Hg (1019.0 mb)
Winds: from the W (260 degrees) at 7 MPH (6 knots; 3.1 m/s)
Visibility: 6 or more miles (10+ km)
Ceiling: at least 12,000 feet AGL
Clouds: sky clear below 12,000 feet AGL
Weather: no significant weather observed at this time

METAR text: YBAS 171800Z AUTO 27007KT 9999 // NCD 14/M01 Q1019 RF00.0/000.0
Conditions at: YBAS (ALICE SPRINGS AR, AU) observed 1800 UTC 17 August 2019
Temperature: 14.0°C (57°F)
Dewpoint: -1.0°C (30°F) [RH = 36%]
Pressure (altimeter): 30.09 inches Hg (1019.0 mb)
Winds: from the W (270 degrees) at 8 MPH (7 knots; 3.6 m/s)
Visibility: 6 or more miles (10+ km)
Ceiling: at least 12,000 feet AGL
Clouds: sky clear below 12,000 feet AGL
Weather: no significant weather observed at this time

METAR text: YBAS 171730Z AUTO 27008KT 9999 // NCD 13/M03 Q1019 RF00.0/000.0
Conditions at: YBAS (ALICE SPRINGS AR, AU) observed 1730 UTC 17 August 2019
Temperature: 13.0°C (55°F)
Dewpoint: -3.0°C (27°F) [RH = 33%]
Pressure (altimeter): 30.09 inches Hg (1019.0 mb)
Winds: from the W (270 degrees) at 9 MPH (8 knots; 4.1 m/s)
Visibility: 6 or more miles (10+ km)
Ceiling: at least 12,000 feet AGL
Clouds: sky clear below 12,000 feet AGL
Weather: no significant weather observed at this time

METAR text: YBAS 171700Z AUTO 27007KT 9999 // NCD 13/M05 Q1019 RF00.0/000.0
Conditions at: YBAS (ALICE SPRINGS AR, AU) observed 1700 UTC 17 August 2019
Temperature: 13.0°C (55°F)
Dewpoint: -5.0°C (23°F) [RH = 28%]
Pressure (altimeter): 30.09 inches Hg (1019.0 mb)
Winds: from the W (270 degrees) at 8 MPH (7 knots; 3.6 m/s)
Visibility: 6 or more miles (10+ km)
Ceiling: at least 12,000 feet AGL
Clouds: sky clear below 12,000 feet AGL
Weather: no significant weather observed at this time

METAR text: YBAS 171630Z AUTO 27007KT 9999 // NCD 15/M05 Q1018 RF00.0/000.0
Conditions at: YBAS (ALICE SPRINGS AR, AU) observed 1630 UTC 17 August 2019
Temperature: 15.0°C (59°F)
Dewpoint: -5.0°C (23°F) [RH = 25%]
Pressure (altimeter): 30.06 inches Hg (1018.0 mb)
Winds: from the W (270 degrees) at 8 MPH (7 knots; 3.6 m/s)
Visibility: 6 or more miles (10+ km)
Ceiling: at least 12,000 feet AGL
Clouds: sky clear below 12,000 feet AGL
Weather: no significant weather observed at this time

METAR text: YBAS 171600Z AUTO 30005KT 9999 // NCD 16/M05 Q1018 RF00.0/000.0
Conditions at: YBAS (ALICE SPRINGS AR, AU) observed 1600 UTC 17 August 2019
Temperature: 16.0°C (61°F)
Dewpoint: -5.0°C (23°F) [RH = 23%]
Pressure (altimeter): 30.06 inches Hg (1018.0 mb)
Winds: from the WNW (300 degrees) at 6 MPH (5 knots; 2.6 m/s)
Visibility: 6 or more miles (10+ km)
Ceiling: at least 12,000 feet AGL
Clouds: sky clear below 12,000 feet AGL
Weather: no significant weather observed at this time

METAR text: YBAS 171530Z AUTO 32005KT 9999 // NCD 15/M06 Q1018 RF00.0/000.0
Conditions at: YBAS (ALICE SPRINGS AR, AU) observed 1530 UTC 17 August 2019
Temperature: 15.0°C (59°F)
Dewpoint: -6.0°C (21°F) [RH = 23%]
Pressure (altimeter): 30.06 inches Hg (1018.0 mb)
Winds: from the NW (320 degrees) at 6 MPH (5 knots; 2.6 m/s)
Visibility: 6 or more miles (10+ km)
Ceiling: at least 12,000 feet AGL
Clouds: sky clear below 12,000 feet AGL
Weather: no significant weather observed at this time

METAR text: YBAS 171500Z AUTO 27005KT 250V310 9999 // NCD 15/M07 Q1018 RF00.0/000.0
Conditions at: YBAS (ALICE SPRINGS AR, AU) observed 1500 UTC 17 August 2019
Temperature: 15.0°C (59°F)
Dewpoint: -7.0°C (19°F) [RH = 21%]
Pressure (altimeter): 30.06 inches Hg (1018.0 mb)
Winds: from the W (270 degrees) at 6 MPH (5 knots; 2.6 m/s)
Visibility: 6 or more miles (10+ km)
Ceiling: at least 12,000 feet AGL
Clouds: sky clear below 12,000 feet AGL
Weather: no significant weather observed at this time

METAR text: YBAS 171430Z AUTO 26006KT 9999 // NCD 15/M08 Q1018 RF00.0/000.0
Conditions at: YBAS (ALICE SPRINGS AR, AU) observed 1430 UTC 17 August 2019
Temperature: 15.0°C (59°F)
Dewpoint: -8.0°C (18°F) [RH = 20%]
Pressure (altimeter): 30.06 inches Hg (1018.0 mb)
Winds: from the W (260 degrees) at 7 MPH (6 knots; 3.1 m/s)
Visibility: 6 or more miles (10+ km)
Ceiling: at least 12,000 feet AGL
Clouds: sky clear below 12,000 feet AGL
Weather: no significant weather observed at this time

METAR text: YBAS 171400Z AUTO 27007KT 9999 // NCD 16/M09 Q1017 RF00.0/000.0
Conditions at: YBAS (ALICE SPRINGS AR, AU) observed 1400 UTC 17 August 2019
Temperature: 16.0°C (61°F)
Dewpoint: -9.0°C (16°F) [RH = 17%]
Pressure (altimeter): 30.03 inches Hg (1017.0 mb)
Winds: from the W (270 degrees) at 8 MPH (7 knots; 3.6 m/s)
Visibility: 6 or more miles (10+ km)
Ceiling: at least 12,000 feet AGL
Clouds: sky clear below 12,000 feet AGL
Weather: no significant weather observed at this time

METAR text: YBAS 171330Z AUTO 28005KT 9999 // NCD 16/M08 Q1017 RF00.0/000.0
Conditions at: YBAS (ALICE SPRINGS AR, AU) observed 1330 UTC 17 August 2019
Temperature: 16.0°C (61°F)
Dewpoint: -8.0°C (18°F) [RH = 18%]
Pressure (altimeter): 30.03 inches Hg (1017.0 mb)
Winds: from the W (280 degrees) at 6 MPH (5 knots; 2.6 m/s)
Visibility: 6 or more miles (10+ km)
Ceiling: at least 12,000 feet AGL
Clouds: sky clear below 12,000 feet AGL
Weather: no significant weather observed at this time

METAR text: YBAS 171300Z AUTO 27007KT 9999 // NCD 16/M09 Q1017 RF00.0/000.0
Conditions at: YBAS (ALICE SPRINGS AR, AU) observed 1300 UTC 17 August 2019
Temperature: 16.0°C (61°F)
Dewpoint: -9.0°C (16°F) [RH = 17%]
Pressure (altimeter): 30.03 inches Hg (1017.0 mb)
Winds: from the W (270 degrees) at 8 MPH (7 knots; 3.6 m/s)
Visibility: 6 or more miles (10+ km)
Ceiling: at least 12,000 feet AGL
Clouds: sky clear below 12,000 feet AGL
Weather: no significant weather observed at this time

METAR text: YBAS 171230Z AUTO 27006KT 9999 // NCD 17/M10 Q1017 RF00.0/000.0
Conditions at: YBAS (ALICE SPRINGS AR, AU) observed 1230 UTC 17 August 2019
Temperature: 17.0°C (63°F)
Dewpoint: -10.0°C (14°F) [RH = 15%]
Pressure (altimeter): 30.03 inches Hg (1017.0 mb)
Winds: from the W (270 degrees) at 7 MPH (6 knots; 3.1 m/s)
Visibility: 6 or more miles (10+ km)
Ceiling: at least 12,000 feet AGL
Clouds: sky clear below 12,000 feet AGL
Weather: no significant weather observed at this time

Forecast for: YBAS (ALICE SPRINGS AR, AU)
Text: TAF YBAS 182314Z 1900/1924 14018G28KT CAVOK
Forecast period: 0000 to 0700 UTC 19 August 2019
Forecast type: FROM: standard forecast or significant change
Winds: from the SE (140 degrees) at 21 MPH (18 knots; 9.3 m/s)
gusting to 32 MPH (28 knots; 14.4 m/s)
Visibility: 6 or more miles 10+ km)
Ceiling: unknown
Clouds: missing
Weather: NSW  (no significant weather)
Text: FM190700 14010KT CAVOK
Forecast period: 0700 to 2300 UTC 19 August 2019
Forecast type: FROM: standard forecast or significant change
Winds: from the SE (140 degrees) at 12 MPH (10 knots; 5.1 m/s)
Visibility: 6 or more miles 10+ km)
Ceiling: unknown
Clouds: missing
Weather: NSW  (no significant weather)
Text: FM192300 12018G28KT CAVOK
Forecast period: 2300 UTC 19 August 2019 to 0000 UTC 20 August 2019
Forecast type: FROM: standard forecast or significant change
Winds: from the ESE (120 degrees) at 21 MPH (18 knots; 9.3 m/s)
gusting to 32 MPH (28 knots; 14.4 m/s)
Visibility: 6 or more miles 10+ km)
Ceiling: unknown
Clouds: missing
Weather: NSW  (no significant weather)